sensor_id;sensor_type;location;lat;lon;timestamp;P1;durP1;ratioP1;P2;durP2;ratioP2
34541;SDS011;20784;51.332;12.410;2022-08-30T00:01:26;13.85;;;6.40;;
34541;SDS011;20784;51.332;12.410;2022-08-30T00:04:11;11.45;;;6.28;;
34541;SDS011;20784;51.332;12.410;2022-08-30T00:06:37;11.85;;;6.30;;
34541;SDS011;20784;51.332;12.410;2022-08-30T00:09:13;10.60;;;6.55;;
34541;SDS011;20784;51.332;12.410;2022-08-30T00:11:39;9.80;;;5.53;;
34541;SDS011;20784;51.332;12.410;2022-08-30T00:14:07;11.82;;;6.57;;
34541;SDS011;20784;51.332;12.410;2022-08-30T00:16:38;8.88;;;5.85;;
34541;SDS011;20784;51.332;12.410;2022-08-30T00:19:04;10.88;;;6.18;;
34541;SDS011;20784;51.332;12.410;2022-08-30T00:21:37;11.52;;;6.03;;
34541;SDS011;20784;51.332;12.410;2022-08-30T00:24:23;12.60;;;8.13;;
34541;SDS011;20784;51.332;12.410;2022-08-30T00:26:52;15.20;;;9.95;;
34541;SDS011;20784;51.332;12.410;2022-08-30T00:29:21;18.77;;;10.50;;
34541;SDS011;20784;51.332;12.410;2022-08-30T00:31:46;16.00;;;10.55;;
34541;SDS011;20784;51.332;12.410;2022-08-30T00:34:17;15.88;;;10.00;;
34541;SDS011;20784;51.332;12.410;2022-08-30T00:36:52;16.88;;;8.93;;
34541;SDS011;20784;51.332;12.410;2022-08-30T00:39:17;14.30;;;9.00;;
34541;SDS011;20784;51.332;12.410;2022-08-30T00:41:45;15.60;;;9.30;;
34541;SDS011;20784;51.332;12.410;2022-08-30T00:44:17;15.18;;;7.28;;
34541;SDS011;20784;51.332;12.410;2022-08-30T00:49:17;14.70;;;5.97;;
34541;SDS011;20784;51.332;12.410;2022-08-30T00:51:48;11.35;;;5.75;;
34541;SDS011;20784;51.332;12.410;2022-08-30T00:54:22;10.83;;;5.83;;
34541;SDS011;20784;51.332;12.410;2022-08-30T00:56:51;9.52;;;5.25;;
34541;SDS011;20784;51.332;12.410;2022-08-30T00:59:18;7.53;;;5.32;;
34541;SDS011;20784;51.332;12.410;2022-08-30T01:01:46;14.48;;;5.90;;
34541;SDS011;20784;51.332;12.410;2022-08-30T01:04:17;8.38;;;5.60;;
34541;SDS011;20784;51.332;12.410;2022-08-30T01:07:09;13.30;;;5.68;;
34541;SDS011;20784;51.332;12.410;2022-08-30T01:19:59;11.23;;;4.75;;
34541;SDS011;20784;51.332;12.410;2022-08-30T01:38:04;9.48;;;5.28;;
34541;SDS011;20784;51.332;12.410;2022-08-30T01:40:59;7.82;;;4.50;;
34541;SDS011;20784;51.332;12.410;2022-08-30T01:43:47;10.32;;;4.82;;
34541;SDS011;20784;51.332;12.410;2022-08-30T01:46:43;10.75;;;4.70;;
34541;SDS011;20784;51.332;12.410;2022-08-30T01:49:39;10.03;;;4.37;;
34541;SDS011;20784;51.332;12.410;2022-08-30T01:52:13;10.23;;;5.10;;
34541;SDS011;20784;51.332;12.410;2022-08-30T01:54:44;18.73;;;5.53;;
34541;SDS011;20784;51.332;12.410;2022-08-30T01:57:39;7.65;;;4.60;;
34541;SDS011;20784;51.332;12.410;2022-08-30T02:00:20;10.05;;;4.90;;
34541;SDS011;20784;51.332;12.410;2022-08-30T02:03:13;8.63;;;5.03;;
34541;SDS011;20784;51.332;12.410;2022-08-30T02:05:41;10.25;;;5.38;;
34541;SDS011;20784;51.332;12.410;2022-08-30T02:08:07;10.45;;;4.90;;
34541;SDS011;20784;51.332;12.410;2022-08-30T02:10:43;7.82;;;4.93;;
34541;SDS011;20784;51.332;12.410;2022-08-30T02:13:12;10.90;;;5.07;;
34541;SDS011;20784;51.332;12.410;2022-08-30T02:15:38;13.27;;;5.93;;
34541;SDS011;20784;51.332;12.410;2022-08-30T02:18:03;9.45;;;5.47;;
34541;SDS011;20784;51.332;12.410;2022-08-30T02:20:36;12.97;;;5.67;;
34541;SDS011;20784;51.332;12.410;2022-08-30T02:23:14;9.07;;;4.97;;
34541;SDS011;20784;51.332;12.410;2022-08-30T02:25:40;9.50;;;5.70;;
34541;SDS011;20784;51.332;12.410;2022-08-30T02:28:06;12.95;;;5.35;;
34541;SDS011;20784;51.332;12.410;2022-08-30T02:30:35;11.73;;;5.50;;
34541;SDS011;20784;51.332;12.410;2022-08-30T02:33:01;8.02;;;5.30;;
34541;SDS011;20784;51.332;12.410;2022-08-30T02:35:29;8.18;;;5.38;;
34541;SDS011;20784;51.332;12.410;2022-08-30T02:37:55;8.70;;;5.25;;
34541;SDS011;20784;51.332;12.410;2022-08-30T02:40:20;11.40;;;5.47;;
34541;SDS011;20784;51.332;12.410;2022-08-30T02:42:49;11.13;;;5.43;;
34541;SDS011;20784;51.332;12.410;2022-08-30T02:47:51;9.95;;;5.55;;
34541;SDS011;20784;51.332;12.410;2022-08-30T02:50:20;12.48;;;5.35;;
34541;SDS011;20784;51.332;12.410;2022-08-30T02:53:00;9.18;;;5.15;;
34541;SDS011;20784;51.332;12.410;2022-08-30T02:55:29;10.75;;;5.47;;
34541;SDS011;20784;51.332;12.410;2022-08-30T02:57:54;12.23;;;5.63;;
34541;SDS011;20784;51.332;12.410;2022-08-30T03:04:04;11.93;;;5.95;;
34541;SDS011;20784;51.332;12.410;2022-08-30T03:06:58;10.02;;;5.63;;
34541;SDS011;20784;51.332;12.410;2022-08-30T03:09:24;12.35;;;5.70;;
34541;SDS011;20784;51.332;12.410;2022-08-30T03:14:37;9.98;;;5.80;;
34541;SDS011;20784;51.332;12.410;2022-08-30T03:17:07;7.22;;;5.32;;
34541;SDS011;20784;51.332;12.410;2022-08-30T03:19:36;10.07;;;5.95;;
34541;SDS011;20784;51.332;12.410;2022-08-30T03:24:34;10.98;;;5.70;;
34541;SDS011;20784;51.332;12.410;2022-08-30T03:27:23;10.77;;;5.95;;
34541;SDS011;20784;51.332;12.410;2022-08-30T03:30:00;10.70;;;4.95;;
34541;SDS011;20784;51.332;12.410;2022-08-30T03:32:33;11.85;;;6.05;;
34541;SDS011;20784;51.332;12.410;2022-08-30T03:35:09;11.93;;;5.65;;
34541;SDS011;20784;51.332;12.410;2022-08-30T03:37:47;12.00;;;6.10;;
34541;SDS011;20784;51.332;12.410;2022-08-30T03:40:16;10.40;;;5.55;;
34541;SDS011;20784;51.332;12.410;2022-08-30T03:43:00;10.38;;;5.38;;
34541;SDS011;20784;51.332;12.410;2022-08-30T03:45:54;13.25;;;6.50;;
34541;SDS011;20784;51.332;12.410;2022-08-30T03:48:31;12.48;;;6.05;;
34541;SDS011;20784;51.332;12.410;2022-08-30T03:51:23;12.85;;;6.20;;
34541;SDS011;20784;51.332;12.410;2022-08-30T03:54:27;12.68;;;5.90;;
34541;SDS011;20784;51.332;12.410;2022-08-30T03:57:06;11.00;;;5.85;;
34541;SDS011;20784;51.332;12.410;2022-08-30T04:00:45;13.32;;;6.00;;
34541;SDS011;20784;51.332;12.410;2022-08-30T04:03:11;12.43;;;5.80;;
34541;SDS011;20784;51.332;12.410;2022-08-30T04:05:44;8.32;;;6.05;;
34541;SDS011;20784;51.332;12.410;2022-08-30T04:08:35;11.63;;;6.00;;
34541;SDS011;20784;51.332;12.410;2022-08-30T04:14:10;9.65;;;5.63;;
34541;SDS011;20784;51.332;12.410;2022-08-30T04:16:38;9.13;;;5.95;;
34541;SDS011;20784;51.332;12.410;2022-08-30T04:19:12;9.38;;;5.57;;
34541;SDS011;20784;51.332;12.410;2022-08-30T04:21:46;11.00;;;5.97;;
34541;SDS011;20784;51.332;12.410;2022-08-30T04:24:22;13.73;;;6.32;;
34541;SDS011;20784;51.332;12.410;2022-08-30T04:27:14;8.63;;;5.85;;
34541;SDS011;20784;51.332;12.410;2022-08-30T04:29:50;12.32;;;6.65;;
34541;SDS011;20784;51.332;12.410;2022-08-30T04:32:31;8.68;;;5.93;;
34541;SDS011;20784;51.332;12.410;2022-08-30T04:35:12;12.63;;;6.22;;
34541;SDS011;20784;51.332;12.410;2022-08-30T04:38:00;11.07;;;6.45;;
34541;SDS011;20784;51.332;12.410;2022-08-30T04:40:34;11.15;;;6.53;;
34541;SDS011;20784;51.332;12.410;2022-08-30T04:43:19;12.65;;;6.60;;
34541;SDS011;20784;51.332;12.410;2022-08-30T04:45:44;11.80;;;5.93;;
34541;SDS011;20784;51.332;12.410;2022-08-30T04:48:10;10.57;;;6.13;;
34541;SDS011;20784;51.332;12.410;2022-08-30T04:50:36;9.43;;;6.00;;
34541;SDS011;20784;51.332;12.410;2022-08-30T04:53:04;13.82;;;6.32;;
34541;SDS011;20784;51.332;12.410;2022-08-30T04:55:30;16.63;;;6.25;;
34541;SDS011;20784;51.332;12.410;2022-08-30T04:57:58;11.20;;;6.18;;
34541;SDS011;20784;51.332;12.410;2022-08-30T05:00:29;11.55;;;6.57;;
34541;SDS011;20784;51.332;12.410;2022-08-30T05:03:19;14.77;;;6.70;;
34541;SDS011;20784;51.332;12.410;2022-08-30T05:06:15;12.25;;;6.43;;
34541;SDS011;20784;51.332;12.410;2022-08-30T05:09:35;10.18;;;5.80;;
34541;SDS011;20784;51.332;12.410;2022-08-30T05:15:15;11.38;;;6.78;;
34541;SDS011;20784;51.332;12.410;2022-08-30T05:17:50;12.98;;;6.65;;
34541;SDS011;20784;51.332;12.410;2022-08-30T05:20:21;17.08;;;7.30;;
34541;SDS011;20784;51.332;12.410;2022-08-30T05:25:39;13.82;;;7.43;;
34541;SDS011;20784;51.332;12.410;2022-08-30T05:28:11;12.63;;;7.28;;
34541;SDS011;20784;51.332;12.410;2022-08-30T05:30:37;14.20;;;7.20;;
34541;SDS011;20784;51.332;12.410;2022-08-30T05:33:05;16.15;;;6.88;;
34541;SDS011;20784;51.332;12.410;2022-08-30T05:38:32;12.70;;;6.75;;
34541;SDS011;20784;51.332;12.410;2022-08-30T05:40:58;13.70;;;7.35;;
34541;SDS011;20784;51.332;12.410;2022-08-30T05:43:26;15.20;;;7.82;;
34541;SDS011;20784;51.332;12.410;2022-08-30T05:46:05;17.05;;;6.78;;
34541;SDS011;20784;51.332;12.410;2022-08-30T05:48:35;16.05;;;7.13;;
34541;SDS011;20784;51.332;12.410;2022-08-30T05:51:21;13.40;;;6.93;;
34541;SDS011;20784;51.332;12.410;2022-08-30T05:53:48;11.27;;;6.57;;
34541;SDS011;20784;51.332;12.410;2022-08-30T05:59:03;12.32;;;7.13;;
34541;SDS011;20784;51.332;12.410;2022-08-30T06:01:34;12.90;;;6.15;;
34541;SDS011;20784;51.332;12.410;2022-08-30T06:04:02;13.30;;;7.57;;
34541;SDS011;20784;51.332;12.410;2022-08-30T06:06:33;14.95;;;7.32;;
34541;SDS011;20784;51.332;12.410;2022-08-30T06:09:04;14.52;;;7.65;;
34541;SDS011;20784;51.332;12.410;2022-08-30T06:11:34;16.85;;;7.60;;
34541;SDS011;20784;51.332;12.410;2022-08-30T06:14:07;16.45;;;7.43;;
34541;SDS011;20784;51.332;12.410;2022-08-30T06:16:33;18.73;;;7.07;;
34541;SDS011;20784;51.332;12.410;2022-08-30T06:19:02;10.98;;;7.47;;
34541;SDS011;20784;51.332;12.410;2022-08-30T06:21:47;14.55;;;8.27;;
34541;SDS011;20784;51.332;12.410;2022-08-30T06:24:25;14.10;;;7.68;;
34541;SDS011;20784;51.332;12.410;2022-08-30T06:27:01;16.17;;;7.90;;
34541;SDS011;20784;51.332;12.410;2022-08-30T06:29:29;24.15;;;8.85;;
34541;SDS011;20784;51.332;12.410;2022-08-30T06:32:02;15.93;;;7.88;;
34541;SDS011;20784;51.332;12.410;2022-08-30T06:34:28;17.52;;;8.18;;
34541;SDS011;20784;51.332;12.410;2022-08-30T06:37:04;11.00;;;6.97;;
34541;SDS011;20784;51.332;12.410;2022-08-30T06:39:32;21.20;;;8.50;;
34541;SDS011;20784;51.332;12.410;2022-08-30T06:42:05;17.10;;;8.30;;
34541;SDS011;20784;51.332;12.410;2022-08-30T06:44:30;16.15;;;7.70;;
34541;SDS011;20784;51.332;12.410;2022-08-30T06:46:59;19.58;;;8.43;;
34541;SDS011;20784;51.332;12.410;2022-08-30T06:49:24;15.43;;;8.18;;
34541;SDS011;20784;51.332;12.410;2022-08-30T06:51:53;15.50;;;7.65;;
34541;SDS011;20784;51.332;12.410;2022-08-30T06:54:25;20.48;;;8.35;;
34541;SDS011;20784;51.332;12.410;2022-08-30T06:56:56;16.90;;;7.93;;
34541;SDS011;20784;51.332;12.410;2022-08-30T06:59:22;16.05;;;7.65;;
34541;SDS011;20784;51.332;12.410;2022-08-30T07:01:48;14.32;;;7.82;;
34541;SDS011;20784;51.332;12.410;2022-08-30T07:04:13;14.90;;;7.78;;
34541;SDS011;20784;51.332;12.410;2022-08-30T07:06:39;14.00;;;8.30;;
34541;SDS011;20784;51.332;12.410;2022-08-30T07:09:04;12.98;;;8.18;;
34541;SDS011;20784;51.332;12.410;2022-08-30T07:11:39;21.20;;;8.35;;
34541;SDS011;20784;51.332;12.410;2022-08-30T07:14:08;14.85;;;7.68;;
34541;SDS011;20784;51.332;12.410;2022-08-30T07:16:34;19.60;;;9.10;;
34541;SDS011;20784;51.332;12.410;2022-08-30T07:19:01;14.13;;;8.38;;
34541;SDS011;20784;51.332;12.410;2022-08-30T07:21:34;16.30;;;9.05;;
34541;SDS011;20784;51.332;12.410;2022-08-30T07:24:07;21.95;;;8.07;;
34541;SDS011;20784;51.332;12.410;2022-08-30T07:26:44;16.80;;;8.32;;
34541;SDS011;20784;51.332;12.410;2022-08-30T07:29:13;18.20;;;8.13;;
34541;SDS011;20784;51.332;12.410;2022-08-30T07:31:42;17.45;;;8.82;;
34541;SDS011;20784;51.332;12.410;2022-08-30T07:34:08;21.70;;;9.15;;
34541;SDS011;20784;51.332;12.410;2022-08-30T07:36:36;17.40;;;8.55;;
34541;SDS011;20784;51.332;12.410;2022-08-30T07:39:03;19.02;;;8.65;;
34541;SDS011;20784;51.332;12.410;2022-08-30T07:41:36;20.17;;;9.65;;
34541;SDS011;20784;51.332;12.410;2022-08-30T07:44:10;20.27;;;9.25;;
34541;SDS011;20784;51.332;12.410;2022-08-30T07:46:39;18.15;;;9.68;;
34541;SDS011;20784;51.332;12.410;2022-08-30T07:49:05;18.45;;;9.13;;
34541;SDS011;20784;51.332;12.410;2022-08-30T07:51:37;18.67;;;8.90;;
34541;SDS011;20784;51.332;12.410;2022-08-30T07:54:03;15.57;;;8.68;;
34541;SDS011;20784;51.332;12.410;2022-08-30T07:56:29;15.07;;;9.18;;
34541;SDS011;20784;51.332;12.410;2022-08-30T07:59:02;15.90;;;8.88;;
34541;SDS011;20784;51.332;12.410;2022-08-30T08:01:28;13.07;;;8.63;;
34541;SDS011;20784;51.332;12.410;2022-08-30T08:04:08;13.80;;;8.65;;
34541;SDS011;20784;51.332;12.410;2022-08-30T08:06:42;15.32;;;7.35;;
34541;SDS011;20784;51.332;12.410;2022-08-30T08:09:31;14.98;;;7.70;;
34541;SDS011;20784;51.332;12.410;2022-08-30T08:12:02;11.93;;;8.30;;
34541;SDS011;20784;51.332;12.410;2022-08-30T08:14:32;15.77;;;7.32;;
34541;SDS011;20784;51.332;12.410;2022-08-30T08:17:15;10.68;;;6.68;;
34541;SDS011;20784;51.332;12.410;2022-08-30T08:19:41;14.85;;;7.68;;
34541;SDS011;20784;51.332;12.410;2022-08-30T08:22:09;12.52;;;7.32;;
34541;SDS011;20784;51.332;12.410;2022-08-30T08:24:35;12.10;;;6.15;;
34541;SDS011;20784;51.332;12.410;2022-08-30T08:27:01;14.57;;;6.00;;
34541;SDS011;20784;51.332;12.410;2022-08-30T08:29:29;11.98;;;6.38;;
34541;SDS011;20784;51.332;12.410;2022-08-30T08:32:03;12.43;;;7.32;;
34541;SDS011;20784;51.332;12.410;2022-08-30T08:34:29;13.15;;;6.45;;
34541;SDS011;20784;51.332;12.410;2022-08-30T08:37:02;18.00;;;6.90;;
34541;SDS011;20784;51.332;12.410;2022-08-30T08:39:37;19.50;;;7.05;;
34541;SDS011;20784;51.332;12.410;2022-08-30T08:42:24;15.23;;;7.03;;
34541;SDS011;20784;51.332;12.410;2022-08-30T08:57:18;11.38;;;5.82;;
34541;SDS011;20784;51.332;12.410;2022-08-30T08:59:44;14.57;;;5.53;;
34541;SDS011;20784;51.332;12.410;2022-08-30T09:02:22;7.85;;;5.35;;
34541;SDS011;20784;51.332;12.410;2022-08-30T09:04:50;8.98;;;4.90;;
34541;SDS011;20784;51.332;12.410;2022-08-30T09:07:23;9.85;;;4.25;;
34541;SDS011;20784;51.332;12.410;2022-08-30T09:09:56;9.45;;;4.70;;
34541;SDS011;20784;51.332;12.410;2022-08-30T09:12:24;10.40;;;4.82;;
34541;SDS011;20784;51.332;12.410;2022-08-30T09:15:14;10.32;;;4.15;;
34541;SDS011;20784;51.332;12.410;2022-08-30T09:18:03;9.00;;;4.68;;
34541;SDS011;20784;51.332;12.410;2022-08-30T09:20:35;7.88;;;4.47;;
34541;SDS011;20784;51.332;12.410;2022-08-30T09:23:26;10.70;;;4.00;;
34541;SDS011;20784;51.332;12.410;2022-08-30T09:28:36;4.97;;;2.83;;
34541;SDS011;20784;51.332;12.410;2022-08-30T09:33:59;7.40;;;4.05;;
34541;SDS011;20784;51.332;12.410;2022-08-30T09:39:14;11.88;;;4.70;;
34541;SDS011;20784;51.332;12.410;2022-08-30T09:41:43;9.02;;;3.95;;
34541;SDS011;20784;51.332;12.410;2022-08-30T09:44:17;9.98;;;3.95;;
34541;SDS011;20784;51.332;12.410;2022-08-30T09:46:57;8.63;;;3.22;;
34541;SDS011;20784;51.332;12.410;2022-08-30T09:49:35;8.15;;;3.28;;
34541;SDS011;20784;51.332;12.410;2022-08-30T09:52:16;8.38;;;3.65;;
34541;SDS011;20784;51.332;12.410;2022-08-30T09:58:25;8.98;;;4.10;;
34541;SDS011;20784;51.332;12.410;2022-08-30T10:01:03;8.15;;;3.40;;
34541;SDS011;20784;51.332;12.410;2022-08-30T10:06:30;6.15;;;3.42;;
34541;SDS011;20784;51.332;12.410;2022-08-30T10:09:11;6.82;;;4.15;;
34541;SDS011;20784;51.332;12.410;2022-08-30T10:11:55;5.93;;;3.58;;
34541;SDS011;20784;51.332;12.410;2022-08-30T10:20:10;9.40;;;3.38;;
34541;SDS011;20784;51.332;12.410;2022-08-30T10:25:52;7.20;;;3.50;;
34541;SDS011;20784;51.332;12.410;2022-08-30T10:28:28;6.35;;;3.17;;
34541;SDS011;20784;51.332;12.410;2022-08-30T10:31:10;6.97;;;3.42;;
34541;SDS011;20784;51.332;12.410;2022-08-30T10:33:42;10.63;;;3.72;;
34541;SDS011;20784;51.332;12.410;2022-08-30T10:36:13;10.85;;;3.65;;
34541;SDS011;20784;51.332;12.410;2022-08-30T10:38:48;8.30;;;4.00;;
34541;SDS011;20784;51.332;12.410;2022-08-30T10:48:53;8.95;;;3.72;;
34541;SDS011;20784;51.332;12.410;2022-08-30T10:51:32;13.48;;;3.97;;
34541;SDS011;20784;51.332;12.410;2022-08-30T10:54:20;10.68;;;3.40;;
34541;SDS011;20784;51.332;12.410;2022-08-30T10:56:57;8.07;;;3.67;;
34541;SDS011;20784;51.332;12.410;2022-08-30T11:02:32;11.00;;;4.03;;
34541;SDS011;20784;51.332;12.410;2022-08-30T11:13:23;9.75;;;3.55;;
34541;SDS011;20784;51.332;12.410;2022-08-30T11:18:55;9.75;;;3.55;;
34541;SDS011;20784;51.332;12.410;2022-08-30T11:21:35;11.50;;;3.33;;
34541;SDS011;20784;51.332;12.410;2022-08-30T11:24:25;14.75;;;2.97;;
34541;SDS011;20784;51.332;12.410;2022-08-30T11:27:49;6.50;;;3.15;;
34541;SDS011;20784;51.332;12.410;2022-08-30T11:57:49;4.90;;;2.97;;
34541;SDS011;20784;51.332;12.410;2022-08-30T12:08:03;7.97;;;3.28;;
34541;SDS011;20784;51.332;12.410;2022-08-30T12:10:40;10.07;;;3.70;;
34541;SDS011;20784;51.332;12.410;2022-08-30T12:13:10;8.23;;;3.95;;
34541;SDS011;20784;51.332;12.410;2022-08-30T12:18:46;5.82;;;3.42;;
34541;SDS011;20784;51.332;12.410;2022-08-30T12:21:41;9.80;;;3.65;;
34541;SDS011;20784;51.332;12.410;2022-08-30T12:30:02;7.28;;;3.33;;
34541;SDS011;20784;51.332;12.410;2022-08-30T12:32:51;8.90;;;3.75;;
34541;SDS011;20784;51.332;12.410;2022-08-30T12:35:41;7.22;;;3.65;;
34541;SDS011;20784;51.332;12.410;2022-08-30T12:41:00;7.18;;;3.83;;
34541;SDS011;20784;51.332;12.410;2022-08-30T12:43:55;6.55;;;3.70;;
34541;SDS011;20784;51.332;12.410;2022-08-30T12:46:46;6.70;;;3.40;;
34541;SDS011;20784;51.332;12.410;2022-08-30T12:49:20;5.65;;;3.60;;
34541;SDS011;20784;51.332;12.410;2022-08-30T12:52:16;5.32;;;3.28;;
34541;SDS011;20784;51.332;12.410;2022-08-30T12:55:22;6.15;;;3.50;;
34541;SDS011;20784;51.332;12.410;2022-08-30T13:05:58;6.88;;;3.17;;
34541;SDS011;20784;51.332;12.410;2022-08-30T13:08:49;4.60;;;3.47;;
34541;SDS011;20784;51.332;12.410;2022-08-30T13:11:23;9.63;;;3.53;;
34541;SDS011;20784;51.332;12.410;2022-08-30T13:14:25;7.32;;;3.13;;
34541;SDS011;20784;51.332;12.410;2022-08-30T13:17:31;8.35;;;3.65;;
34541;SDS011;20784;51.332;12.410;2022-08-30T13:20:18;5.75;;;3.38;;
34541;SDS011;20784;51.332;12.410;2022-08-30T13:23:24;4.47;;;3.53;;
34541;SDS011;20784;51.332;12.410;2022-08-30T13:26:22;5.25;;;3.42;;
34541;SDS011;20784;51.332;12.410;2022-08-30T13:31:25;6.95;;;3.90;;
34541;SDS011;20784;51.332;12.410;2022-08-30T13:33:53;6.85;;;3.65;;
34541;SDS011;20784;51.332;12.410;2022-08-30T13:36:27;9.43;;;3.38;;
34541;SDS011;20784;51.332;12.410;2022-08-30T13:39:03;5.60;;;2.95;;
34541;SDS011;20784;51.332;12.410;2022-08-30T13:41:32;7.57;;;3.55;;
34541;SDS011;20784;51.332;12.410;2022-08-30T13:44:07;4.97;;;3.15;;
34541;SDS011;20784;51.332;12.410;2022-08-30T13:46:39;4.88;;;3.22;;
34541;SDS011;20784;51.332;12.410;2022-08-30T13:49:17;8.50;;;3.78;;
34541;SDS011;20784;51.332;12.410;2022-08-30T13:52:07;5.65;;;3.72;;
34541;SDS011;20784;51.332;12.410;2022-08-30T13:54:51;10.40;;;4.22;;
34541;SDS011;20784;51.332;12.410;2022-08-30T13:57:20;4.38;;;3.53;;
34541;SDS011;20784;51.332;12.410;2022-08-30T13:59:56;5.38;;;3.80;;
34541;SDS011;20784;51.332;12.410;2022-08-30T14:02:27;5.75;;;3.25;;
34541;SDS011;20784;51.332;12.410;2022-08-30T14:04:58;3.78;;;3.20;;
34541;SDS011;20784;51.332;12.410;2022-08-30T14:07:29;8.63;;;3.97;;
34541;SDS011;20784;51.332;12.410;2022-08-30T14:09:55;6.68;;;3.90;;
34541;SDS011;20784;51.332;12.410;2022-08-30T14:12:57;5.53;;;3.58;;
34541;SDS011;20784;51.332;12.410;2022-08-30T14:16:03;6.70;;;4.03;;
34541;SDS011;20784;51.332;12.410;2022-08-30T14:18:31;7.93;;;3.72;;
34541;SDS011;20784;51.332;12.410;2022-08-30T14:20:57;8.13;;;3.50;;
34541;SDS011;20784;51.332;12.410;2022-08-30T14:23:24;7.90;;;3.70;;
34541;SDS011;20784;51.332;12.410;2022-08-30T14:25:50;8.23;;;3.85;;
34541;SDS011;20784;51.332;12.410;2022-08-30T14:28:19;6.20;;;3.55;;
34541;SDS011;20784;51.332;12.410;2022-08-30T14:30:46;4.65;;;3.78;;
34541;SDS011;20784;51.332;12.410;2022-08-30T14:33:12;6.78;;;4.20;;
34541;SDS011;20784;51.332;12.410;2022-08-30T14:35:47;6.00;;;3.45;;
34541;SDS011;20784;51.332;12.410;2022-08-30T14:38:19;6.13;;;3.70;;
34541;SDS011;20784;51.332;12.410;2022-08-30T14:40:52;6.70;;;3.50;;
34541;SDS011;20784;51.332;12.410;2022-08-30T14:43:34;10.80;;;3.70;;
34541;SDS011;20784;51.332;12.410;2022-08-30T14:46:01;11.63;;;4.05;;
34541;SDS011;20784;51.332;12.410;2022-08-30T14:48:37;7.65;;;3.22;;
34541;SDS011;20784;51.332;12.410;2022-08-30T14:51:10;5.75;;;3.53;;
34541;SDS011;20784;51.332;12.410;2022-08-30T14:56:56;6.68;;;3.97;;
34541;SDS011;20784;51.332;12.410;2022-08-30T14:59:25;6.90;;;3.53;;
34541;SDS011;20784;51.332;12.410;2022-08-30T15:01:56;7.68;;;3.40;;
34541;SDS011;20784;51.332;12.410;2022-08-30T15:04:32;7.80;;;3.42;;
34541;SDS011;20784;51.332;12.410;2022-08-30T15:07:00;5.55;;;3.45;;
34541;SDS011;20784;51.332;12.410;2022-08-30T15:09:29;7.33;;;3.80;;
34541;SDS011;20784;51.332;12.410;2022-08-30T15:12:17;6.60;;;3.65;;
34541;SDS011;20784;51.332;12.410;2022-08-30T15:14:52;6.72;;;3.22;;
34541;SDS011;20784;51.332;12.410;2022-08-30T15:17:37;6.65;;;3.55;;
34541;SDS011;20784;51.332;12.410;2022-08-30T15:20:28;12.05;;;3.67;;
34541;SDS011;20784;51.332;12.410;2022-08-30T15:26:32;11.63;;;3.95;;
34541;SDS011;20784;51.332;12.410;2022-08-30T15:29:09;5.68;;;3.58;;
34541;SDS011;20784;51.332;12.410;2022-08-30T15:32:02;12.27;;;3.80;;
34541;SDS011;20784;51.332;12.410;2022-08-30T15:34:59;5.50;;;3.60;;
34541;SDS011;20784;51.332;12.410;2022-08-30T15:37:58;6.65;;;3.65;;
34541;SDS011;20784;51.332;12.410;2022-08-30T15:40:31;5.45;;;3.28;;
34541;SDS011;20784;51.332;12.410;2022-08-30T15:43:01;6.63;;;3.73;;
34541;SDS011;20784;51.332;12.410;2022-08-30T15:46:25;6.05;;;3.60;;
34541;SDS011;20784;51.332;12.410;2022-08-30T15:49:01;8.73;;;3.60;;
34541;SDS011;20784;51.332;12.410;2022-08-30T15:51:45;6.15;;;3.70;;
34541;SDS011;20784;51.332;12.410;2022-08-30T15:57:11;8.60;;;3.55;;
34541;SDS011;20784;51.332;12.410;2022-08-30T15:59:57;6.18;;;3.78;;
34541;SDS011;20784;51.332;12.410;2022-08-30T16:02:59;10.00;;;4.10;;
34541;SDS011;20784;51.332;12.410;2022-08-30T16:05:25;7.72;;;4.15;;
34541;SDS011;20784;51.332;12.410;2022-08-30T16:10:58;7.88;;;3.90;;
34541;SDS011;20784;51.332;12.410;2022-08-30T16:14:23;4.28;;;3.15;;
34541;SDS011;20784;51.332;12.410;2022-08-30T16:16:56;6.65;;;3.10;;
34541;SDS011;20784;51.332;12.410;2022-08-30T16:19:24;4.37;;;3.30;;
34541;SDS011;20784;51.332;12.410;2022-08-30T16:21:58;5.95;;;2.90;;
34541;SDS011;20784;51.332;12.410;2022-08-30T16:24:31;5.75;;;3.17;;
34541;SDS011;20784;51.332;12.410;2022-08-30T16:27:26;7.72;;;2.95;;
34541;SDS011;20784;51.332;12.410;2022-08-30T16:30:12;5.63;;;3.50;;
34541;SDS011;20784;51.332;12.410;2022-08-30T16:33:11;5.53;;;3.13;;
34541;SDS011;20784;51.332;12.410;2022-08-30T16:35:36;8.18;;;3.30;;
34541;SDS011;20784;51.332;12.410;2022-08-30T16:38:04;4.07;;;2.67;;
34541;SDS011;20784;51.332;12.410;2022-08-30T16:40:33;4.30;;;3.22;;
34541;SDS011;20784;51.332;12.410;2022-08-30T16:43:19;6.07;;;2.90;;
34541;SDS011;20784;51.332;12.410;2022-08-30T16:46:00;8.88;;;2.90;;
34541;SDS011;20784;51.332;12.410;2022-08-30T16:51:31;4.68;;;3.00;;
34541;SDS011;20784;51.332;12.410;2022-08-30T16:57:16;7.30;;;3.13;;
34541;SDS011;20784;51.332;12.410;2022-08-30T17:00:05;7.15;;;3.13;;
34541;SDS011;20784;51.332;12.410;2022-08-30T17:02:51;4.53;;;2.38;;
34541;SDS011;20784;51.332;12.410;2022-08-30T17:05:20;6.38;;;2.53;;
34541;SDS011;20784;51.332;12.410;2022-08-30T17:07:46;8.43;;;3.65;;
34541;SDS011;20784;51.332;12.410;2022-08-30T17:10:12;5.75;;;2.85;;
34541;SDS011;20784;51.332;12.410;2022-08-30T17:12:38;5.20;;;2.83;;
34541;SDS011;20784;51.332;12.410;2022-08-30T17:15:04;3.30;;;2.78;;
34541;SDS011;20784;51.332;12.410;2022-08-30T17:17:52;4.03;;;2.90;;
34541;SDS011;20784;51.332;12.410;2022-08-30T17:20:17;19.05;;;11.23;;
34541;SDS011;20784;51.332;12.410;2022-08-30T17:22:46;11.23;;;5.60;;
34541;SDS011;20784;51.332;12.410;2022-08-30T17:25:12;10.65;;;3.70;;
34541;SDS011;20784;51.332;12.410;2022-08-30T17:27:37;9.88;;;4.47;;
34541;SDS011;20784;51.332;12.410;2022-08-30T17:30:06;19.35;;;13.07;;
34541;SDS011;20784;51.332;12.410;2022-08-30T17:32:37;5.10;;;4.45;;
34541;SDS011;20784;51.332;12.410;2022-08-30T17:35:03;7.30;;;3.65;;
34541;SDS011;20784;51.332;12.410;2022-08-30T17:37:29;11.80;;;5.70;;
34541;SDS011;20784;51.332;12.410;2022-08-30T17:39:58;18.83;;;11.88;;
34541;SDS011;20784;51.332;12.410;2022-08-30T17:42:25;9.48;;;6.43;;
34541;SDS011;20784;51.332;12.410;2022-08-30T17:44:53;24.20;;;14.85;;
34541;SDS011;20784;51.332;12.410;2022-08-30T17:47:18;19.75;;;14.73;;
34541;SDS011;20784;51.332;12.410;2022-08-30T17:49:44;8.00;;;4.38;;
34541;SDS011;20784;51.332;12.410;2022-08-30T17:52:19;9.00;;;6.40;;
34541;SDS011;20784;51.332;12.410;2022-08-30T17:54:50;15.95;;;9.98;;
34541;SDS011;20784;51.332;12.410;2022-08-30T17:57:18;15.88;;;9.07;;
34541;SDS011;20784;51.332;12.410;2022-08-30T17:59:46;22.42;;;16.33;;
34541;SDS011;20784;51.332;12.410;2022-08-30T18:02:18;19.83;;;12.52;;
34541;SDS011;20784;51.332;12.410;2022-08-30T18:04:57;14.02;;;9.77;;
34541;SDS011;20784;51.332;12.410;2022-08-30T18:07:25;14.05;;;7.75;;
34541;SDS011;20784;51.332;12.410;2022-08-30T18:10:01;18.65;;;12.43;;
34541;SDS011;20784;51.332;12.410;2022-08-30T18:12:34;20.73;;;10.68;;
34541;SDS011;20784;51.332;12.410;2022-08-30T18:14:59;16.45;;;12.38;;
34541;SDS011;20784;51.332;12.410;2022-08-30T18:17:28;11.90;;;8.02;;
34541;SDS011;20784;51.332;12.410;2022-08-30T18:19:54;14.15;;;6.90;;
34541;SDS011;20784;51.332;12.410;2022-08-30T18:22:19;8.88;;;5.80;;